sensor_id;sensor_type;location;lat;lon;timestamp;pressure;altitude;pressure_sealevel;temperature;humidity
59110;BME280;44895;47.438;18.978;2023-06-04T00:02:56;100347.91;;;10.53;100.00
59110;BME280;44895;47.438;18.978;2023-06-04T00:06:00;100353.97;;;10.69;100.00
59110;BME280;44895;47.438;18.978;2023-06-04T00:09:04;100346.66;;;10.69;100.00
59110;BME280;44895;47.438;18.978;2023-06-04T00:12:08;100347.22;;;10.66;100.00
59110;BME280;44895;47.438;18.978;2023-06-04T00:15:14;100350.13;;;10.75;100.00
59110;BME280;44895;47.438;18.978;2023-06-04T00:18:18;100356.63;;;10.74;100.00
59110;BME280;44895;47.438;18.978;2023-06-04T00:21:23;100348.91;;;10.86;100.00
59110;BME280;44895;47.438;18.978;2023-06-04T00:24:26;100344.25;;;10.92;100.00
59110;BME280;44895;47.438;18.978;2023-06-04T00:27:30;100339.59;;;10.92;100.00
59110;BME280;44895;47.438;18.978;2023-06-04T00:30:34;100345.88;;;11.12;100.00
59110;BME280;44895;47.438;18.978;2023-06-04T00:33:39;100340.44;;;11.12;100.00
59110;BME280;44895;47.438;18.978;2023-06-04T00:36:42;100334.63;;;11.00;100.00
59110;BME280;44895;47.438;18.978;2023-06-04T00:39:47;100341.59;;;10.87;100.00
59110;BME280;44895;47.438;18.978;2023-06-04T00:42:51;100342.22;;;10.79;100.00
59110;BME280;44895;47.438;18.978;2023-06-04T00:45:56;100346.13;;;10.91;100.00
59110;BME280;44895;47.438;18.978;2023-06-04T00:48:59;100343.34;;;10.97;100.00
59110;BME280;44895;47.438;18.978;2023-06-04T00:52:03;100339.38;;;10.89;100.00
59110;BME280;44895;47.438;18.978;2023-06-04T00:55:09;100337.50;;;10.84;100.00
59110;BME280;44895;47.438;18.978;2023-06-04T00:58:13;100344.97;;;10.73;100.00
59110;BME280;44895;47.438;18.978;2023-06-04T01:01:33;100346.91;;;10.97;100.00
59110;BME280;44895;47.438;18.978;2023-06-04T01:07:59;100339.59;;;11.36;100.00
59110;BME280;44895;47.438;18.978;2023-06-04T01:11:03;100335.00;;;11.55;100.00
59110;BME280;44895;47.438;18.978;2023-06-04T01:14:09;100326.91;;;11.50;100.00
59110;BME280;44895;47.438;18.978;2023-06-04T01:17:25;100326.91;;;11.50;100.00
59110;BME280;44895;47.438;18.978;2023-06-04T01:20:37;100331.38;;;11.41;100.00
59110;BME280;44895;47.438;18.978;2023-06-04T01:23:50;100326.69;;;11.28;100.00
59110;BME280;44895;47.438;18.978;2023-06-04T01:27:05;100330.72;;;11.30;100.00
59110;BME280;44895;47.438;18.978;2023-06-04T01:30:11;100340.38;;;11.41;100.00
59110;BME280;44895;47.438;18.978;2023-06-04T01:33:19;100342.88;;;11.57;100.00
59110;BME280;44895;47.438;18.978;2023-06-04T01:36:25;100339.19;;;11.48;100.00
59110;BME280;44895;47.438;18.978;2023-06-04T01:39:28;100340.63;;;11.40;100.00
59110;BME280;44895;47.438;18.978;2023-06-04T01:42:32;100343.16;;;11.36;100.00
59110;BME280;44895;47.438;18.978;2023-06-04T01:45:36;100344.53;;;11.34;100.00
59110;BME280;44895;47.438;18.978;2023-06-04T01:48:40;100346.38;;;11.38;100.00
59110;BME280;44895;47.438;18.978;2023-06-04T01:51:44;100337.41;;;11.38;100.00
59110;BME280;44895;47.438;18.978;2023-06-04T01:54:48;100339.91;;;11.34;100.00
59110;BME280;44895;47.438;18.978;2023-06-04T01:57:56;100343.06;;;11.22;100.00
59110;BME280;44895;47.438;18.978;2023-06-04T02:01:00;100338.56;;;11.13;100.00
59110;BME280;44895;47.438;18.978;2023-06-04T02:04:06;100343.25;;;11.26;100.00
59110;BME280;44895;47.438;18.978;2023-06-04T02:07:11;100336.72;;;11.27;100.00
59110;BME280;44895;47.438;18.978;2023-06-04T02:10:19;100341.81;;;11.15;100.00
59110;BME280;44895;47.438;18.978;2023-06-04T02:13:23;100344.09;;;11.46;100.00
59110;BME280;44895;47.438;18.978;2023-06-04T02:16:27;100341.63;;;11.49;100.00
59110;BME280;44895;47.438;18.978;2023-06-04T02:19:31;100346.88;;;11.21;100.00
59110;BME280;44895;47.438;18.978;2023-06-04T02:22:37;100355.78;;;11.03;100.00
59110;BME280;44895;47.438;18.978;2023-06-04T02:25:42;100358.88;;;10.96;100.00
59110;BME280;44895;47.438;18.978;2023-06-04T02:28:48;100361.59;;;10.96;100.00
59110;BME280;44895;47.438;18.978;2023-06-04T02:31:52;100361.22;;;11.03;100.00
59110;BME280;44895;47.438;18.978;2023-06-04T02:34:57;100360.94;;;10.80;100.00
59110;BME280;44895;47.438;18.978;2023-06-04T02:38:01;100359.66;;;10.72;100.00
59110;BME280;44895;47.438;18.978;2023-06-04T02:41:05;100348.25;;;10.70;100.00
59110;BME280;44895;47.438;18.978;2023-06-04T02:44:09;100337.31;;;10.81;100.00
59110;BME280;44895;47.438;18.978;2023-06-04T02:47:13;100337.13;;;10.72;100.00
59110;BME280;44895;47.438;18.978;2023-06-04T02:50:17;100341.72;;;10.71;100.00
59110;BME280;44895;47.438;18.978;2023-06-04T02:53:21;100346.00;;;10.53;100.00
59110;BME280;44895;47.438;18.978;2023-06-04T02:56:26;100348.41;;;10.55;100.00
59110;BME280;44895;47.438;18.978;2023-06-04T02:59:31;100345.88;;;10.34;100.00
59110;BME280;44895;47.438;18.978;2023-06-04T03:02:35;100348.47;;;10.50;100.00
59110;BME280;44895;47.438;18.978;2023-06-04T03:05:39;100353.09;;;10.49;100.00
59110;BME280;44895;47.438;18.978;2023-06-04T03:08:44;100354.28;;;10.67;100.00
59110;BME280;44895;47.438;18.978;2023-06-04T03:11:49;100355.25;;;10.76;100.00
59110;BME280;44895;47.438;18.978;2023-06-04T03:14:53;100351.75;;;10.76;100.00
59110;BME280;44895;47.438;18.978;2023-06-04T03:17:57;100353.00;;;10.84;100.00
59110;BME280;44895;47.438;18.978;2023-06-04T03:21:01;100347.69;;;10.73;100.00
59110;BME280;44895;47.438;18.978;2023-06-04T03:24:05;100355.31;;;10.71;100.00
59110;BME280;44895;47.438;18.978;2023-06-04T03:27:11;100357.59;;;10.64;100.00
59110;BME280;44895;47.438;18.978;2023-06-04T03:30:17;100355.50;;;10.80;100.00
59110;BME280;44895;47.438;18.978;2023-06-04T03:33:41;100364.34;;;10.91;100.00
59110;BME280;44895;47.438;18.978;2023-06-04T03:36:45;100366.19;;;10.96;100.00
59110;BME280;44895;47.438;18.978;2023-06-04T03:39:49;100367.88;;;11.16;100.00
59110;BME280;44895;47.438;18.978;2023-06-04T03:42:55;100372.53;;;11.34;100.00
59110;BME280;44895;47.438;18.978;2023-06-04T03:46:03;100378.94;;;11.43;100.00
59110;BME280;44895;47.438;18.978;2023-06-04T03:49:07;100371.84;;;11.48;100.00
59110;BME280;44895;47.438;18.978;2023-06-04T03:52:11;100372.69;;;11.43;100.00
59110;BME280;44895;47.438;18.978;2023-06-04T03:55:17;100380.31;;;11.41;100.00
59110;BME280;44895;47.438;18.978;2023-06-04T03:58:22;100386.09;;;11.58;100.00
59110;BME280;44895;47.438;18.978;2023-06-04T04:01:29;100380.94;;;11.57;100.00
59110;BME280;44895;47.438;18.978;2023-06-04T04:04:34;100382.06;;;11.75;100.00
59110;BME280;44895;47.438;18.978;2023-06-04T04:07:38;100386.53;;;11.66;100.00
59110;BME280;44895;47.438;18.978;2023-06-04T04:10:43;100388.44;;;11.65;100.00
59110;BME280;44895;47.438;18.978;2023-06-04T04:13:47;100393.31;;;12.06;100.00
59110;BME280;44895;47.438;18.978;2023-06-04T04:16:52;100390.13;;;12.18;100.00
59110;BME280;44895;47.438;18.978;2023-06-04T04:19:56;100383.63;;;12.33;100.00
59110;BME280;44895;47.438;18.978;2023-06-04T04:23:00;100383.78;;;12.56;100.00
59110;BME280;44895;47.438;18.978;2023-06-04T04:26:06;100388.88;;;12.77;100.00
59110;BME280;44895;47.438;18.978;2023-06-04T04:29:11;100389.50;;;12.87;100.00
59110;BME280;44895;47.438;18.978;2023-06-04T04:32:16;100392.34;;;13.10;100.00
59110;BME280;44895;47.438;18.978;2023-06-04T04:35:24;100387.78;;;13.47;100.00
59110;BME280;44895;47.438;18.978;2023-06-04T04:38:31;100394.00;;;13.76;100.00
59110;BME280;44895;47.438;18.978;2023-06-04T04:41:41;100383.34;;;14.11;100.00
59110;BME280;44895;47.438;18.978;2023-06-04T04:44:45;100393.81;;;14.31;100.00
59110;BME280;44895;47.438;18.978;2023-06-04T04:47:52;100403.31;;;14.34;100.00
59110;BME280;44895;47.438;18.978;2023-06-04T04:50:56;100399.22;;;14.23;100.00
59110;BME280;44895;47.438;18.978;2023-06-04T04:54:00;100392.06;;;14.35;100.00
59110;BME280;44895;47.438;18.978;2023-06-04T04:57:04;100394.59;;;14.32;100.00
59110;BME280;44895;47.438;18.978;2023-06-04T05:00:10;100390.81;;;14.42;100.00
59110;BME280;44895;47.438;18.978;2023-06-04T05:03:17;100394.78;;;14.58;100.00
59110;BME280;44895;47.438;18.978;2023-06-04T05:06:21;100398.47;;;14.62;100.00
59110;BME280;44895;47.438;18.978;2023-06-04T05:09:25;100401.91;;;14.68;100.00
59110;BME280;44895;47.438;18.978;2023-06-04T05:12:30;100399.22;;;14.77;100.00
59110;BME280;44895;47.438;18.978;2023-06-04T05:15:35;100400.97;;;14.73;100.00
59110;BME280;44895;47.438;18.978;2023-06-04T05:18:40;100392.78;;;14.73;100.00
59110;BME280;44895;47.438;18.978;2023-06-04T05:21:52;100409.59;;;14.89;100.00
59110;BME280;44895;47.438;18.978;2023-06-04T05:24:56;100420.56;;;14.97;100.00
59110;BME280;44895;47.438;18.978;2023-06-04T05:28:03;100421.53;;;15.02;100.00
59110;BME280;44895;47.438;18.978;2023-06-04T05:31:07;100418.84;;;15.10;100.00
59110;BME280;44895;47.438;18.978;2023-06-04T05:34:12;100418.22;;;15.22;100.00
59110;BME280;44895;47.438;18.978;2023-06-04T05:37:21;100425.66;;;15.22;100.00
59110;BME280;44895;47.438;18.978;2023-06-04T05:40:27;100427.06;;;15.10;100.00
59110;BME280;44895;47.438;18.978;2023-06-04T05:43:32;100428.56;;;15.25;100.00
59110;BME280;44895;47.438;18.978;2023-06-04T05:46:37;100423.91;;;15.35;100.00
59110;BME280;44895;47.438;18.978;2023-06-04T05:49:40;100415.44;;;15.54;100.00
59110;BME280;44895;47.438;18.978;2023-06-04T05:52:45;100417.66;;;15.52;100.00
59110;BME280;44895;47.438;18.978;2023-06-04T05:55:49;100417.53;;;15.65;100.00
59110;BME280;44895;47.438;18.978;2023-06-04T05:58:54;100412.72;;;15.80;97.18
59110;BME280;44895;47.438;18.978;2023-06-04T06:02:00;100409.06;;;16.11;85.30
59110;BME280;44895;47.438;18.978;2023-06-04T06:05:05;100410.06;;;18.21;69.93
59110;BME280;44895;47.438;18.978;2023-06-04T06:08:13;100416.13;;;18.94;61.04
59110;BME280;44895;47.438;18.978;2023-06-04T06:11:17;100416.84;;;18.57;64.69
59110;BME280;44895;47.438;18.978;2023-06-04T06:14:22;100415.28;;;18.35;59.64
59110;BME280;44895;47.438;18.978;2023-06-04T06:17:27;100412.94;;;19.41;61.96
59110;BME280;44895;47.438;18.978;2023-06-04T06:20:32;100411.84;;;21.00;53.59
59110;BME280;44895;47.438;18.978;2023-06-04T06:23:36;100415.41;;;19.83;50.15
59110;BME280;44895;47.438;18.978;2023-06-04T06:26:41;100423.66;;;18.84;52.53
59110;BME280;44895;47.438;18.978;2023-06-04T06:29:47;100429.97;;;18.85;57.52
59110;BME280;44895;47.438;18.978;2023-06-04T06:32:51;100437.66;;;18.46;58.09
59110;BME280;44895;47.438;18.978;2023-06-04T06:35:55;100444.59;;;18.31;60.08
59110;BME280;44895;47.438;18.978;2023-06-04T06:38:59;100432.97;;;18.46;60.75
59110;BME280;44895;47.438;18.978;2023-06-04T06:42:03;100438.63;;;19.08;57.21
59110;BME280;44895;47.438;18.978;2023-06-04T06:45:13;100442.25;;;18.87;53.90
59110;BME280;44895;47.438;18.978;2023-06-04T06:48:17;100454.44;;;19.11;54.68
59110;BME280;44895;47.438;18.978;2023-06-04T06:51:21;100449.31;;;19.22;53.01
59110;BME280;44895;47.438;18.978;2023-06-04T06:54:25;100452.69;;;19.68;51.88
59110;BME280;44895;47.438;18.978;2023-06-04T06:57:30;100447.06;;;20.02;52.16
59110;BME280;44895;47.438;18.978;2023-06-04T07:00:34;100453.28;;;21.16;50.37
59110;BME280;44895;47.438;18.978;2023-06-04T07:03:39;100454.34;;;20.95;45.82
59110;BME280;44895;47.438;18.978;2023-06-04T07:06:46;100460.94;;;20.91;48.11
59110;BME280;44895;47.438;18.978;2023-06-04T07:09:51;100452.13;;;21.17;45.29
59110;BME280;44895;47.438;18.978;2023-06-04T07:12:55;100453.34;;;21.67;42.80
59110;BME280;44895;47.438;18.978;2023-06-04T07:15:59;100454.31;;;21.95;43.25
59110;BME280;44895;47.438;18.978;2023-06-04T07:19:03;100456.38;;;21.62;44.27
59110;BME280;44895;47.438;18.978;2023-06-04T07:22:07;100456.97;;;21.72;43.76
59110;BME280;44895;47.438;18.978;2023-06-04T07:25:11;100447.84;;;22.26;43.48
59110;BME280;44895;47.438;18.978;2023-06-04T07:28:14;100440.78;;;21.38;44.57
59110;BME280;44895;47.438;18.978;2023-06-04T07:31:19;100450.13;;;21.49;43.64
59110;BME280;44895;47.438;18.978;2023-06-04T07:34:23;100446.84;;;21.60;44.10
59110;BME280;44895;47.438;18.978;2023-06-04T07:37:27;100446.31;;;21.90;45.72
59110;BME280;44895;47.438;18.978;2023-06-04T07:40:31;100446.47;;;21.61;46.94
59110;BME280;44895;47.438;18.978;2023-06-04T07:43:36;100448.03;;;21.78;47.28
59110;BME280;44895;47.438;18.978;2023-06-04T07:46:40;100455.06;;;21.56;45.04
59110;BME280;44895;47.438;18.978;2023-06-04T07:49:44;100445.63;;;21.77;45.01
59110;BME280;44895;47.438;18.978;2023-06-04T07:52:48;100454.97;;;21.21;44.94
59110;BME280;44895;47.438;18.978;2023-06-04T07:55:53;100452.03;;;21.29;45.88
59110;BME280;44895;47.438;18.978;2023-06-04T07:58:57;100462.06;;;21.22;46.19
59110;BME280;44895;47.438;18.978;2023-06-04T08:02:01;100462.63;;;21.27;47.05
59110;BME280;44895;47.438;18.978;2023-06-04T08:05:05;100462.84;;;21.54;48.20
59110;BME280;44895;47.438;18.978;2023-06-04T08:08:09;100458.34;;;21.30;46.66
59110;BME280;44895;47.438;18.978;2023-06-04T08:11:14;100466.41;;;21.71;47.77
59110;BME280;44895;47.438;18.978;2023-06-04T08:14:18;100462.06;;;21.70;47.46
59110;BME280;44895;47.438;18.978;2023-06-04T08:17:25;100465.47;;;21.63;48.80
59110;BME280;44895;47.438;18.978;2023-06-04T08:20:29;100461.25;;;22.05;45.04
59110;BME280;44895;47.438;18.978;2023-06-04T08:23:33;100476.13;;;21.80;45.68
59110;BME280;44895;47.438;18.978;2023-06-04T08:26:37;100472.59;;;22.19;45.92
59110;BME280;44895;47.438;18.978;2023-06-04T08:29:41;100476.47;;;22.14;45.92
59110;BME280;44895;47.438;18.978;2023-06-04T08:32:45;100466.56;;;22.53;43.45
59110;BME280;44895;47.438;18.978;2023-06-04T08:35:49;100468.25;;;22.38;43.72
59110;BME280;44895;47.438;18.978;2023-06-04T08:38:53;100473.16;;;21.89;44.22
59110;BME280;44895;47.438;18.978;2023-06-04T08:42:04;100468.81;;;21.72;46.26
59110;BME280;44895;47.438;18.978;2023-06-04T08:45:12;100462.53;;;21.40;46.66
59110;BME280;44895;47.438;18.978;2023-06-04T08:48:18;100468.66;;;21.49;46.26
59110;BME280;44895;47.438;18.978;2023-06-04T08:51:24;100460.94;;;21.07;48.63
59110;BME280;44895;47.438;18.978;2023-06-04T08:54:29;100461.75;;;20.63;48.45
59110;BME280;44895;47.438;18.978;2023-06-04T08:57:35;100467.00;;;20.68;50.28
59110;BME280;44895;47.438;18.978;2023-06-04T09:00:39;100466.47;;;20.62;50.79
59110;BME280;44895;47.438;18.978;2023-06-04T09:03:43;100463.28;;;20.32;49.20
59110;BME280;44895;47.438;18.978;2023-06-04T09:06:48;100471.59;;;20.19;50.47
59110;BME280;44895;47.438;18.978;2023-06-04T09:09:53;100473.88;;;20.17;51.53
59110;BME280;44895;47.438;18.978;2023-06-04T09:13:01;100462.34;;;19.99;50.99
59110;BME280;44895;47.438;18.978;2023-06-04T09:16:06;100474.69;;;20.18;52.52
59110;BME280;44895;47.438;18.978;2023-06-04T09:19:10;100462.03;;;20.29;51.29
59110;BME280;44895;47.438;18.978;2023-06-04T09:22:14;100479.59;;;20.25;50.81
59110;BME280;44895;47.438;18.978;2023-06-04T09:25:24;100473.38;;;20.28;52.83
59110;BME280;44895;47.438;18.978;2023-06-04T09:28:29;100465.59;;;20.17;51.43
59110;BME280;44895;47.438;18.978;2023-06-04T09:31:34;100468.94;;;20.23;54.45
59110;BME280;44895;47.438;18.978;2023-06-04T09:34:40;100467.75;;;20.24;53.51
59110;BME280;44895;47.438;18.978;2023-06-04T09:37:53;100468.72;;;20.16;53.47
59110;BME280;44895;47.438;18.978;2023-06-04T09:40:57;100475.66;;;19.97;51.90
59110;BME280;44895;47.438;18.978;2023-06-04T09:44:04;100474.84;;;19.97;53.53
59110;BME280;44895;47.438;18.978;2023-06-04T09:47:09;100471.63;;;20.07;54.14
59110;BME280;44895;47.438;18.978;2023-06-04T09:50:13;100475.00;;;19.88;55.93
59110;BME280;44895;47.438;18.978;2023-06-04T09:53:19;100480.75;;;19.83;54.21
59110;BME280;44895;47.438;18.978;2023-06-04T09:56:27;100473.50;;;19.91;54.84
59110;BME280;44895;47.438;18.978;2023-06-04T09:59:37;100469.22;;;19.68;58.44
59110;BME280;44895;47.438;18.978;2023-06-04T10:02:44;100476.94;;;19.50;58.28
59110;BME280;44895;47.438;18.978;2023-06-04T10:05:50;100479.22;;;19.61;57.83
59110;BME280;44895;47.438;18.978;2023-06-04T10:08:57;100487.84;;;19.59;62.64
59110;BME280;44895;47.438;18.978;2023-06-04T10:12:03;100487.06;;;19.59;58.89
59110;BME280;44895;47.438;18.978;2023-06-04T10:15:12;100486.34;;;19.62;60.09
59110;BME280;44895;47.438;18.978;2023-06-04T10:18:18;100485.78;;;19.56;66.54
59110;BME280;44895;47.438;18.978;2023-06-04T10:21:25;100474.41;;;19.58;60.95
59110;BME280;44895;47.438;18.978;2023-06-04T10:24:30;100467.06;;;19.74;62.35
59110;BME280;44895;47.438;18.978;2023-06-04T10:27:36;100476.69;;;19.80;66.60
59110;BME280;44895;47.438;18.978;2023-06-04T10:30:40;100475.56;;;19.81;65.20
59110;BME280;44895;47.438;18.978;2023-06-04T10:33:44;100469.84;;;19.86;65.54
59110;BME280;44895;47.438;18.978;2023-06-04T10:36:49;100471.44;;;19.87;70.57
59110;BME280;44895;47.438;18.978;2023-06-04T10:39:55;100473.47;;;19.78;65.05
59110;BME280;44895;47.438;18.978;2023-06-04T10:43:10;100477.97;;;19.95;68.92
59110;BME280;44895;47.438;18.978;2023-06-04T10:46:17;100476.09;;;20.12;70.23
59110;BME280;44895;47.438;18.978;2023-06-04T10:49:26;100469.31;;;20.09;63.15
59110;BME280;44895;47.438;18.978;2023-06-04T10:52:31;100473.09;;;20.17;62.57
59110;BME280;44895;47.438;18.978;2023-06-04T10:55:43;100466.56;;;20.37;60.59
59110;BME280;44895;47.438;18.978;2023-06-04T10:58:47;100471.56;;;20.32;58.10
59110;BME280;44895;47.438;18.978;2023-06-04T11:01:51;100478.66;;;20.33;58.30
59110;BME280;44895;47.438;18.978;2023-06-04T11:04:59;100476.75;;;20.49;62.64
59110;BME280;44895;47.438;18.978;2023-06-04T11:08:05;100480.69;;;20.48;63.71
59110;BME280;44895;47.438;18.978;2023-06-04T11:11:15;100475.75;;;20.42;62.68
59110;BME280;44895;47.438;18.978;2023-06-04T11:14:19;100475.50;;;20.47;60.72
59110;BME280;44895;47.438;18.978;2023-06-04T11:17:24;100470.78;;;20.47;56.71
59110;BME280;44895;47.438;18.978;2023-06-04T11:20:28;100473.72;;;20.54;58.69
59110;BME280;44895;47.438;18.978;2023-06-04T11:23:33;100471.31;;;20.53;56.03
59110;BME280;44895;47.438;18.978;2023-06-04T11:26:37;100476.25;;;20.60;58.49
59110;BME280;44895;47.438;18.978;2023-06-04T11:29:41;100469.63;;;20.48;54.17
59110;BME280;44895;47.438;18.978;2023-06-04T11:32:46;100473.97;;;20.49;57.39
59110;BME280;44895;47.438;18.978;2023-06-04T11:35:50;100473.06;;;20.29;63.24
59110;BME280;44895;47.438;18.978;2023-06-04T11:39:03;100470.47;;;20.08;70.13
59110;BME280;44895;47.438;18.978;2023-06-04T11:42:11;100464.00;;;20.16;70.06
59110;BME280;44895;47.438;18.978;2023-06-04T11:45:17;100471.63;;;20.07;76.58
59110;BME280;44895;47.438;18.978;2023-06-04T11:48:21;100467.59;;;20.04;77.24
59110;BME280;44895;47.438;18.978;2023-06-04T11:51:26;100473.22;;;20.08;81.79
59110;BME280;44895;47.438;18.978;2023-06-04T11:54:32;100471.63;;;20.07;89.81
59110;BME280;44895;47.438;18.978;2023-06-04T11:57:40;100472.78;;;19.94;83.19
59110;BME280;44895;47.438;18.978;2023-06-04T12:00:44;100471.09;;;19.89;85.61
59110;BME280;44895;47.438;18.978;2023-06-04T12:03:48;100477.75;;;19.88;91.82
59110;BME280;44895;47.438;18.978;2023-06-04T12:06:56;100481.28;;;19.88;100.00
59110;BME280;44895;47.438;18.978;2023-06-04T12:10:06;100472.59;;;19.86;89.42
59110;BME280;44895;47.438;18.978;2023-06-04T12:13:11;100475.31;;;19.99;88.43
59110;BME280;44895;47.438;18.978;2023-06-04T12:16:16;100470.34;;;20.04;79.42
59110;BME280;44895;47.438;18.978;2023-06-04T12:19:20;100471.59;;;20.19;93.40
59110;BME280;44895;47.438;18.978;2023-06-04T12:22:25;100469.00;;;20.27;86.34
59110;BME280;44895;47.438;18.978;2023-06-04T12:25:30;100474.06;;;20.37;84.53
59110;BME280;44895;47.438;18.978;2023-06-04T12:28:35;100476.94;;;20.57;85.06
59110;BME280;44895;47.438;18.978;2023-06-04T12:31:40;100467.72;;;20.65;90.38
59110;BME280;44895;47.438;18.978;2023-06-04T12:34:46;100476.00;;;20.65;80.86
59110;BME280;44895;47.438;18.978;2023-06-04T12:37:51;100463.00;;;20.65;76.08
59110;BME280;44895;47.438;18.978;2023-06-04T12:40:54;100461.66;;;20.88;72.82
59110;BME280;44895;47.438;18.978;2023-06-04T12:44:01;100457.47;;;21.10;76.20
59110;BME280;44895;47.438;18.978;2023-06-04T12:47:07;100455.13;;;20.96;67.41
59110;BME280;44895;47.438;18.978;2023-06-04T12:50:11;100450.88;;;21.14;66.19
59110;BME280;44895;47.438;18.978;2023-06-04T12:53:16;100448.63;;;21.20;66.57
59110;BME280;44895;47.438;18.978;2023-06-04T12:56:21;100450.50;;;21.32;69.04
59110;BME280;44895;47.438;18.978;2023-06-04T12:59:26;100440.53;;;21.11;60.29
59110;BME280;44895;47.438;18.978;2023-06-04T13:02:30;100448.72;;;21.08;58.93
59110;BME280;44895;47.438;18.978;2023-06-04T13:05:36;100447.38;;;21.17;58.16
59110;BME280;44895;47.438;18.978;2023-06-04T13:08:40;100443.75;;;21.13;57.77
59110;BME280;44895;47.438;18.978;2023-06-04T13:11:44;100443.75;;;21.29;57.56
59110;BME280;44895;47.438;18.978;2023-06-04T13:14:49;100442.91;;;21.61;59.30
59110;BME280;44895;47.438;18.978;2023-06-04T13:17:53;100442.28;;;21.67;55.87
59110;BME280;44895;47.438;18.978;2023-06-04T13:20:57;100431.81;;;21.77;56.34
59110;BME280;44895;47.438;18.978;2023-06-04T13:24:01;100425.06;;;21.74;56.45
59110;BME280;44895;47.438;18.978;2023-06-04T13:27:05;100424.63;;;21.92;59.13
59110;BME280;44895;47.438;18.978;2023-06-04T13:30:09;100415.16;;;21.73;56.87
59110;BME280;44895;47.438;18.978;2023-06-04T13:33:13;100431.16;;;21.83;57.93
59110;BME280;44895;47.438;18.978;2023-06-04T13:36:18;100419.16;;;21.76;58.02
59110;BME280;44895;47.438;18.978;2023-06-04T13:39:22;100412.22;;;21.66;54.21
59110;BME280;44895;47.438;18.978;2023-06-04T13:42:26;100404.16;;;21.57;53.48
59110;BME280;44895;47.438;18.978;2023-06-04T13:45:30;100413.78;;;21.47;54.86
59110;BME280;44895;47.438;18.978;2023-06-04T13:48:34;100414.75;;;21.55;53.91
59110;BME280;44895;47.438;18.978;2023-06-04T13:51:38;100412.50;;;21.61;55.59
59110;BME280;44895;47.438;18.978;2023-06-04T13:54:43;100410.03;;;21.56;57.61
59110;BME280;44895;47.438;18.978;2023-06-04T13:57:47;100406.09;;;21.57;57.61
59110;BME280;44895;47.438;18.978;2023-06-04T14:00:51;100404.06;;;21.54;55.24
59110;BME280;44895;47.438;18.978;2023-06-04T14:03:55;100402.44;;;21.53;56.80
59110;BME280;44895;47.438;18.978;2023-06-04T14:06:59;100389.78;;;21.51;57.80
59110;BME280;44895;47.438;18.978;2023-06-04T14:10:04;100394.84;;;21.49;61.13
59110;BME280;44895;47.438;18.978;2023-06-04T14:13:08;100398.28;;;21.43;62.94
59110;BME280;44895;47.438;18.978;2023-06-04T14:16:14;100393.56;;;21.43;62.26
59110;BME280;44895;47.438;18.978;2023-06-04T14:19:18;100394.63;;;21.39;63.61
59110;BME280;44895;47.438;18.978;2023-06-04T14:22:22;100384.28;;;21.35;65.24
59110;BME280;44895;47.438;18.978;2023-06-04T14:25:26;100402.75;;;21.31;64.46
59110;BME280;44895;47.438;18.978;2023-06-04T14:28:31;100402.94;;;21.23;65.75
59110;BME280;44895;47.438;18.978;2023-06-04T14:31:35;100396.53;;;21.18;66.10
59110;BME280;44895;47.438;18.978;2023-06-04T14:34:39;100399.66;;;21.17;77.09
59110;BME280;44895;47.438;18.978;2023-06-04T14:37:43;100391.75;;;21.15;79.34
59110;BME280;44895;47.438;18.978;2023-06-04T14:40:47;100387.28;;;21.11;78.81
59110;BME280;44895;47.438;18.978;2023-06-04T14:43:52;100385.59;;;21.06;83.85
59110;BME280;44895;47.438;18.978;2023-06-04T14:46:56;100391.09;;;21.06;80.98
59110;BME280;44895;47.438;18.978;2023-06-04T14:50:00;100382.13;;;20.93;90.85
59110;BME280;44895;47.438;18.978;2023-06-04T14:53:04;100375.09;;;20.96;94.24
59110;BME280;44895;47.438;18.978;2023-06-04T14:56:11;100386.31;;;20.87;100.00
59110;BME280;44895;47.438;18.978;2023-06-04T14:59:15;100388.19;;;20.99;100.00
59110;BME280;44895;47.438;18.978;2023-06-04T15:02:19;100376.97;;;20.92;100.00
59110;BME280;44895;47.438;18.978;2023-06-04T15:05:24;100373.94;;;20.97;100.00
59110;BME280;44895;47.438;18.978;2023-06-04T15:08:28;100375.53;;;20.98;100.00
59110;BME280;44895;47.438;18.978;2023-06-04T15:11:31;100358.63;;;20.99;100.00
59110;BME280;44895;47.438;18.978;2023-06-04T15:14:36;100365.66;;;20.97;100.00
59110;BME280;44895;47.438;18.978;2023-06-04T15:17:40;100357.47;;;21.00;100.00
59110;BME280;44895;47.438;18.978;2023-06-04T15:20:45;100356.38;;;21.05;100.00
59110;BME280;44895;47.438;18.978;2023-06-04T15:23:49;100353.59;;;21.05;100.00
59110;BME280;44895;47.438;18.978;2023-06-04T15:26:53;100353.28;;;21.07;100.00
59110;BME280;44895;47.438;18.978;2023-06-04T15:29:57;100349.28;;;21.04;100.00
59110;BME280;44895;47.438;18.978;2023-06-04T15:33:01;100345.00;;;21.07;94.88
59110;BME280;44895;47.438;18.978;2023-06-04T15:36:06;100350.16;;;21.08;92.73
59110;BME280;44895;47.438;18.978;2023-06-04T15:39:10;100353.56;;;21.01;84.67
59110;BME280;44895;47.438;18.978;2023-06-04T15:42:14;100353.97;;;21.04;82.65
59110;BME280;44895;47.438;18.978;2023-06-04T15:45:18;100350.78;;;21.01;77.66
59110;BME280;44895;47.438;18.978;2023-06-04T15:48:24;100344.22;;;20.90;73.83
59110;BME280;44895;47.438;18.978;2023-06-04T15:51:31;100333.69;;;20.96;72.63
59110;BME280;44895;47.438;18.978;2023-06-04T15:54:35;100338.75;;;21.10;75.34